| time (UTC) | temp F | wind direction | speed knots | gust knots | rain 1hr in | rain 24hr in | rain mn in | humidity % | barometer mb |
| 20260504173456 | 75 | 210 | 1.7 | 4.3 | 0.00 | 0.00 | 0.00 | 52 | 1014.3 |
| 20260504172954 | 74 | 217 | 2.6 | 6.1 | 0.00 | 0.00 | 0.00 | 52 | 1014.3 |
| 20260504172449 | 74 | 150 | 0.0 | 4.3 | 0.00 | 0.00 | 0.00 | 52 | 1014.4 |
| 20260504171946 | 75 | 223 | 3.5 | 4.3 | 0.00 | 0.00 | 0.00 | 54 | 1014.4 |
| 20260504171443 | 73 | 167 | 4.3 | 5.2 | 0.00 | 0.00 | 0.00 | 58 | 1014.5 |
| 20260504170940 | 73 | 167 | 2.6 | 5.2 | 0.00 | 0.00 | 0.00 | 56 | 1014.6 |
| 20260504170436 | 73 | 164 | 0.0 | 5.2 | 0.00 | 0.00 | 0.00 | 52 | 1014.4 |
| 20260504160356 | 73 | 210 | 1.7 | 3.5 | 0.00 | 0.00 | 0.00 | 57 | 1014.9 |
| 20260504150820 | 73 | 178 | 2.6 | 4.3 | 0.00 | 0.00 | 0.00 | 60 | 1015.1 |
| 20260504150316 | 73 | 210 | 2.6 | 4.3 | 0.00 | 0.00 | 0.00 | 60 | 1015.3 |
| 20260504141247 | 73 | 358 | 0.9 | 1.7 | 0.00 | 0.00 | 0.00 | 67 | 1015.1 |
| 20260504140743 | 72 | 170 | 0.0 | 2.6 | 0.00 | 0.00 | 0.00 | 68 | 1015.0 |
| 20260504140239 | 71 | 326 | 1.7 | 4.3 | 0.00 | 0.00 | 0.00 | 69 | 1015.1 |
| 20260504130708 | 68 | 340 | 0.0 | 1.7 | 0.00 | 0.00 | 0.00 | 75 | 1015.0 |
| 20260504130203 | 68 | 21 | 1.7 | 2.6 | 0.00 | 0.00 | 0.00 | 76 | 1015.0 |
| 20260504120127 | 64 | 2 | 1.7 | 2.6 | 0.00 | 0.00 | 0.00 | 87 | 1014.4 |
| 20260504110555 | 64 | 277 | 0.0 | 0.0 | 0.00 | 0.00 | 0.00 | 77 | 1014.2 |
| 20260504100517 | 62 | 358 | 0.0 | 0.0 | 0.00 | 0.00 | 0.00 | 91 | 1014.5 |
| 20260504081910 | 65 | 297 | 0.0 | 0.0 | 0.00 | 0.00 | 0.00 | 76 | 1014.4 |
| 20260504081406 | 65 | 304 | 0.0 | 0.0 | 0.00 | 0.00 | 0.00 | 76 | 1014.4 |
| 20260504080903 | 65 | 285 | 0.0 | 1.7 | 0.00 | 0.00 | 0.00 | 75 | 1014.5 |
| 20260504080400 | 66 | 249 | 0.0 | 0.9 | 0.00 | 0.00 | 0.00 | 75 | 1014.4 |
| 20260504070327 | 66 | 215 | 0.0 | 2.6 | 0.00 | 0.00 | 0.00 | 73 | 1014.9 |
| 20260504060247 | 67 | 252 | 0.9 | 3.5 | 0.00 | 0.00 | 0.00 | 75 | 1015.5 |
| 20260504050715 | 67 | 277 | 0.0 | 2.6 | 0.00 | 0.00 | 0.00 | 68 | 1015.8 |
| 20260504050212 | 67 | 218 | 0.0 | 2.6 | 0.00 | 0.00 | 0.00 | 69 | 1015.8 |
| 20260504045710 | 67 | 277 | 0.0 | 1.7 | 0.00 | 0.00 | 0.00 | 69 | 1015.9 |
| 20260504045210 | 68 | 247 | 0.9 | 2.6 | 0.00 | 0.00 | 0.00 | 69 | 1016.2 |
| 20260504044708 | 68 | 273 | 0.0 | 1.7 | 0.00 | 0.00 | 0.00 | 69 | 1015.9 |
| 20260504044205 | 68 | 220 | 2.6 | 5.2 | 0.00 | 0.00 | 0.00 | 69 | 1016.0 |
| 20260504043701 | 68 | 204 | 0.0 | 2.6 | 0.00 | 0.00 | 0.00 | 68 | 1016.3 |
| 20260504043158 | 68 | 184 | 2.6 | 5.2 | 0.00 | 0.00 | 0.00 | 68 | 1016.3 |
| 20260504042656 | 68 | 183 | 3.5 | 6.1 | 0.00 | 0.00 | 0.00 | 69 | 1016.2 |
| 20260504042152 | 68 | 235 | 0.0 | 3.5 | 0.00 | 0.00 | 0.00 | 69 | 1016.1 |
| 20260504041648 | 69 | 259 | 1.7 | 5.2 | 0.00 | 0.00 | 0.00 | 69 | 1016.1 |
| 20260504041144 | 69 | 204 | 1.7 | 5.2 | 0.00 | 0.00 | 0.00 | 69 | 1016.3 |
| 20260504040642 | 68 | 208 | 2.6 | 3.5 | 0.00 | 0.00 | 0.00 | 69 | 1016.0 |
| 20260504040138 | 69 | 232 | 0.9 | 4.3 | 0.00 | 0.00 | 0.00 | 70 | 1016.0 |
| 20260504035635 | 69 | 165 | 2.6 | 4.3 | 0.00 | 0.00 | 0.00 | 68 | 1016.2 |
| 20260504035132 | 69 | 212 | 3.5 | 3.5 | 0.00 | 0.00 | 0.00 | 69 | 1016.3 |
| 20260504034630 | 69 | 246 | 0.0 | 7.0 | 0.00 | 0.00 | 0.00 | 66 | 1016.1 |
| 20260504034126 | 69 | 210 | 2.6 | 4.3 | 0.00 | 0.00 | 0.00 | 63 | 1016.1 |
| 20260504033624 | 70 | 243 | 3.5 | 3.5 | 0.00 | 0.00 | 0.00 | 62 | 1016.2 |
| 20260504033121 | 69 | 252 | 1.7 | 1.7 | 0.00 | 0.00 | 0.00 | 62 | 1016.1 |
| 20260504032618 | 70 | 197 | 3.5 | 4.3 | 0.00 | 0.00 | 0.00 | 61 | 1015.9 |
| 20260504032115 | 70 | 191 | 2.6 | 5.2 | 0.00 | 0.00 | 0.00 | 58 | 1016.2 |
| 20260504031612 | 69 | 185 | 0.9 | 6.1 | 0.00 | 0.00 | 0.00 | 61 | 1016.2 |
| 20260504031108 | 70 | 208 | 0.0 | 3.5 | 0.00 | 0.00 | 0.00 | 63 | 1016.0 |
| 20260504030605 | 70 | 237 | 1.7 | 4.3 | 0.00 | 0.00 | 0.00 | 62 | 1016.2 |
| 20260504025559 | 69 | 204 | 3.5 | 4.3 | 0.00 | 0.00 | 0.00 | 63 | 1016.0 |
| 20260504025055 | 69 | 198 | 0.9 | 2.6 | 0.00 | 0.00 | 0.00 | 65 | 1015.9 |
| 20260504024553 | 69 | 170 | 0.0 | 2.6 | 0.00 | 0.00 | 0.00 | 66 | 1015.9 |
| 20260504024049 | 70 | 183 | 4.3 | 6.1 | 0.00 | 0.00 | 0.00 | 67 | 1015.9 |
| 20260504023546 | 70 | 169 | 5.2 | 6.1 | 0.00 | 0.00 | 0.00 | 67 | 1015.7 |
| 20260504023042 | 70 | 198 | 0.0 | 1.7 | 0.00 | 0.00 | 0.00 | 66 | 1015.9 |
| 20260504022538 | 69 | 277 | 0.0 | 0.9 | 0.00 | 0.00 | 0.00 | 62 | 1015.8 |
| 20260504022034 | 69 | 277 | 0.0 | 0.9 | 0.00 | 0.00 | 0.00 | 61 | 1015.8 |
| 20260504021532 | 69 | 329 | 0.0 | 0.9 | 0.00 | 0.00 | 0.00 | 62 | 1015.6 |
| 20260504021029 | 69 | 301 | 0.0 | 1.7 | 0.00 | 0.00 | 0.00 | 63 | 1015.5 |
| 20260504020526 | 69 | 304 | 0.0 | 0.9 | 0.00 | 0.00 | 0.00 | 62 | 1015.4 |
| 20260504020022 | 69 | 284 | 0.0 | 0.9 | 0.00 | 0.00 | 0.00 | 61 | 1015.6 |
| 20260504015519 | 69 | 343 | 0.0 | 1.7 | 0.00 | 0.00 | 0.00 | 60 | 1015.6 |
| 20260504015015 | 69 | 232 | 0.0 | 0.9 | 0.00 | 0.00 | 0.00 | 59 | 1015.3 |
| 20260504014511 | 69 | 275 | 0.0 | 0.9 | 0.00 | 0.00 | 0.00 | 60 | 1015.4 |
| 20260504014008 | 69 | 322 | 0.0 | 1.7 | 0.00 | 0.00 | 0.00 | 60 | 1015.3 |
| 20260504013506 | 69 | 232 | 0.0 | 1.7 | 0.00 | 0.00 | 0.00 | 59 | 1015.2 |
| 20260504013002 | 70 | 298 | 0.0 | 1.7 | 0.00 | 0.00 | 0.00 | 60 | 1015.2 |
| 20260504012500 | 70 | 252 | 0.0 | 0.9 | 0.00 | 0.00 | 0.00 | 60 | 1015.2 |
| 20260504011958 | 69 | 318 | 0.0 | 1.7 | 0.00 | 0.00 | 0.00 | 60 | 1015.1 |
| 20260504011454 | 70 | 275 | 0.0 | 1.7 | 0.00 | 0.00 | 0.00 | 59 | 1014.9 |
| 20260504010950 | 69 | 284 | 0.0 | 0.0 | 0.00 | 0.00 | 0.00 | 59 | 1015.1 |
| 20260504010446 | 69 | 204 | 0.0 | 1.7 | 0.00 | 0.00 | 0.00 | 59 | 1015.1 |
| 20260504005942 | 69 | 259 | 0.0 | 0.0 | 0.00 | 0.00 | 0.00 | 59 | 1015.1 |
| 20260504005439 | 70 | 183 | 0.0 | 1.7 | 0.00 | 0.00 | 0.00 | 59 | 1015.1 |
| 20260504004937 | 70 | 304 | 0.0 | 0.9 | 0.00 | 0.00 | 0.00 | 59 | 1015.0 |
| 20260504004434 | 71 | 184 | 0.0 | 1.7 | 0.00 | 0.00 | 0.00 | 59 | 1015.0 |
| 20260504003931 | 71 | 290 | 1.7 | 1.7 | 0.00 | 0.00 | 0.00 | 58 | 1015.0 |
| 20260504003427 | 71 | 178 | 0.0 | 0.0 | 0.00 | 0.00 | 0.00 | 59 | 1014.8 |
| 20260504002924 | 71 | 193 | 0.0 | 0.9 | 0.00 | 0.00 | 0.00 | 57 | 1014.9 |
| 20260504002421 | 71 | 304 | 0.0 | 0.9 | 0.00 | 0.00 | 0.00 | 56 | 1014.8 |
| 20260504001918 | 72 | 276 | 0.0 | 2.6 | 0.00 | 0.00 | 0.00 | 55 | 1014.8 |
| 20260504001416 | 72 | 301 | 0.0 | 1.7 | 0.00 | 0.00 | 0.00 | 58 | 1014.8 |
| 20260504000912 | 72 | 262 | 0.0 | 1.7 | 0.00 | 0.00 | 0.00 | 56 | 1014.9 |
| 20260504000410 | 72 | 274 | 0.0 | 3.5 | 0.00 | 0.00 | 0.00 | 57 | 1015.0 |
| 20260503235907 | 72 | 181 | 1.7 | 3.5 | 0.00 | 0.00 | 0.00 | 55 | 1015.0 |
| 20260503235405 | 72 | 249 | 0.0 | 2.6 | 0.00 | 0.00 | 0.00 | 54 | 1015.0 |
| 20260503234902 | 72 | 192 | 2.6 | 3.5 | 0.00 | 0.00 | 0.00 | 57 | 1015.0 |
| 20260503234359 | 72 | 317 | 0.0 | 3.5 | 0.00 | 0.00 | 0.00 | 56 | 1014.8 |
| 20260503233857 | 72 | 185 | 1.7 | 3.5 | 0.00 | 0.00 | 0.00 | 54 | 1014.9 |
| 20260503233353 | 73 | 178 | 1.7 | 2.6 | 0.00 | 0.00 | 0.00 | 56 | 1014.9 |
| 20260503232849 | 73 | 178 | 0.0 | 1.7 | 0.00 | 0.00 | 0.00 | 53 | 1015.1 |
| 20260503232347 | 73 | 167 | 0.0 | 2.6 | 0.00 | 0.00 | 0.00 | 53 | 1014.9 |
| 20260503231845 | 73 | 188 | 0.0 | 3.5 | 0.00 | 0.00 | 0.00 | 55 | 1015.0 |
| 20260503231342 | 73 | 317 | 0.0 | 3.5 | 0.00 | 0.00 | 0.00 | 53 | 1014.8 |
| 20260503230838 | 72 | 201 | 0.0 | 3.5 | 0.00 | 0.00 | 0.00 | 52 | 1015.0 |
| 20260503230335 | 73 | 190 | 0.9 | 4.3 | 0.00 | 0.00 | 0.00 | 55 | 1015.0 |
| 20260503225833 | 73 | 188 | 2.6 | 4.3 | 0.00 | 0.00 | 0.00 | 53 | 1015.2 |
| 20260503225328 | 73 | 175 | 2.6 | 2.6 | 0.00 | 0.00 | 0.00 | 53 | 1015.2 |
| 20260503224825 | 73 | 178 | 1.7 | 4.3 | 0.00 | 0.00 | 0.00 | 50 | 1015.4 |
| 20260503224322 | 73 | 178 | 1.7 | 4.3 | 0.00 | 0.00 | 0.00 | 51 | 1015.2 |
| 20260503223820 | 73 | 218 | 1.7 | 2.6 | 0.00 | 0.00 | 0.00 | 49 | 1015.2 |
| 20260503223317 | 73 | 183 | 0.9 | 6.1 | 0.00 | 0.00 | 0.00 | 51 | 1015.3 |
| 20260503222812 | 73 | 172 | 2.6 | 4.3 | 0.00 | 0.00 | 0.00 | 48 | 1015.2 |
| 20260503222311 | 73 | 186 | 0.0 | 2.6 | 0.00 | 0.00 | 0.00 | 51 | 1015.4 |
| 20260503221809 | 73 | 180 | 2.6 | 6.1 | 0.00 | 0.00 | 0.00 | 48 | 1015.5 |
| 20260503221307 | 74 | 164 | 2.6 | 2.6 | 0.00 | 0.00 | 0.00 | 46 | 1015.5 |
| 20260503220803 | 74 | 255 | 0.0 | 4.3 | 0.00 | 0.00 | 0.00 | 51 | 1015.5 |
| 20260503220300 | 74 | 306 | 2.6 | 3.5 | 0.00 | 0.00 | 0.00 | 50 | 1015.6 |
| 20260503215757 | 73 | 268 | 0.9 | 2.6 | 0.00 | 0.00 | 0.00 | 51 | 1015.5 |
| 20260503215254 | 73 | 200 | 4.3 | 6.1 | 0.00 | 0.00 | 0.00 | 52 | 1015.6 |
| 20260503214752 | 73 | 196 | 2.6 | 6.1 | 0.00 | 0.00 | 0.00 | 51 | 1015.8 |
| 20260503214248 | 73 | 189 | 1.7 | 4.3 | 0.00 | 0.00 | 0.00 | 50 | 1015.7 |
| 20260503213746 | 73 | 186 | 2.6 | 6.1 | 0.00 | 0.00 | 0.00 | 50 | 1015.7 |
| 20260503213243 | 74 | 178 | 6.1 | 7.0 | 0.00 | 0.00 | 0.00 | 49 | 1015.8 |
| 20260503212740 | 74 | 189 | 1.7 | 5.2 | 0.00 | 0.00 | 0.00 | 50 | 1015.8 |
| 20260503212238 | 73 | 187 | 2.6 | 7.0 | 0.00 | 0.00 | 0.00 | 48 | 1016.1 |
| 20260503211735 | 74 | 211 | 0.0 | 5.2 | 0.00 | 0.00 | 0.00 | 47 | 1015.9 |
| 20260503211231 | 74 | 186 | 4.3 | 7.8 | 0.00 | 0.00 | 0.00 | 50 | 1016.1 |
| 20260503210727 | 74 | 223 | 3.5 | 6.1 | 0.00 | 0.00 | 0.00 | 50 | 1015.9 |
| 20260503210225 | 74 | 200 | 1.7 | 5.2 | 0.00 | 0.00 | 0.00 | 47 | 1016.2 |
| 20260503205720 | 74 | 178 | 2.6 | 7.0 | 0.00 | 0.00 | 0.00 | 47 | 1016.3 |
| 20260503205216 | 74 | 191 | 2.6 | 11.3 | 0.00 | 0.00 | 0.00 | 50 | 1016.3 |
| 20260503204713 | 75 | 181 | 2.6 | 4.3 | 0.00 | 0.00 | 0.00 | 47 | 1016.5 |
| 20260503204211 | 74 | 185 | 4.3 | 7.8 | 0.00 | 0.00 | 0.00 | 50 | 1016.3 |
| 20260503203708 | 74 | 247 | 0.0 | 6.1 | 0.00 | 0.00 | 0.00 | 52 | 1016.4 |
| 20260503203205 | 73 | 205 | 4.3 | 7.8 | 0.00 | 0.00 | 0.00 | 48 | 1016.5 |
| 20260503202702 | 74 | 204 | 2.6 | 7.0 | 0.00 | 0.00 | 0.00 | 50 | 1016.5 |
| 20260503202200 | 73 | 188 | 2.6 | 7.8 | 0.00 | 0.00 | 0.00 | 50 | 1016.6 |
| 20260503201658 | 74 | 196 | 3.5 | 4.3 | 0.00 | 0.00 | 0.00 | 48 | 1016.8 |
| 20260503201155 | 73 | 189 | 2.6 | 7.8 | 0.00 | 0.00 | 0.00 | 47 | 1016.9 |
| 20260503200651 | 75 | 191 | 4.3 | 4.3 | 0.00 | 0.00 | 0.00 | 51 | 1017.1 |
| 20260503200148 | 74 | 196 | 1.7 | 5.2 | 0.00 | 0.00 | 0.00 | 47 | 1017.1 |
| 20260503195645 | 76 | 227 | 1.7 | 5.2 | 0.00 | 0.00 | 0.00 | 50 | 1017.1 |
| 20260503195142 | 75 | 180 | 2.6 | 4.3 | 0.00 | 0.00 | 0.00 | 45 | 1017.2 |
| 20260503194639 | 74 | 200 | 4.3 | 6.1 | 0.00 | 0.00 | 0.00 | 46 | 1017.2 |
| 20260503194134 | 74 | 201 | 0.0 | 6.1 | 0.00 | 0.00 | 0.00 | 46 | 1017.3 |
| 20260503193631 | 73 | 133 | 1.7 | 5.2 | 0.00 | 0.00 | 0.00 | 48 | 1017.6 |
| 20260503193126 | 73 | 196 | 4.3 | 7.0 | 0.00 | 0.00 | 0.00 | 47 | 1017.7 |
| 20260503192622 | 74 | 175 | 4.3 | 7.8 | 0.00 | 0.00 | 0.00 | 51 | 1017.6 |
| 20260503192118 | 73 | 183 | 6.1 | 7.8 | 0.00 | 0.00 | 0.00 | 47 | 1017.6 |
| 20260503191615 | 73 | 260 | 0.9 | 7.8 | 0.00 | 0.00 | 0.00 | 48 | 1017.8 |
| 20260503191112 | 73 | 178 | 2.6 | 5.2 | 0.00 | 0.00 | 0.00 | 46 | 1017.6 |
| 20260503190609 | 73 | 197 | 2.6 | 5.2 | 0.00 | 0.00 | 0.00 | 47 | 1017.7 |
| 20260503190106 | 73 | 210 | 5.2 | 9.6 | 0.00 | 0.00 | 0.00 | 48 | 1017.7 |
| 20260503185603 | 73 | 187 | 7.0 | 10.4 | 0.00 | 0.00 | 0.00 | 48 | 1017.7 |
| 20260503185102 | 73 | 212 | 4.3 | 7.0 | 0.00 | 0.00 | 0.00 | 48 | 1018.0 |
| 20260503184558 | 74 | 46 | 0.0 | 3.5 | 0.00 | 0.00 | 0.00 | 43 | 1017.9 |
| 20260503184055 | 75 | 52 | 2.6 | 5.2 | 0.00 | 0.00 | 0.00 | 42 | 1018.2 |
| 20260503183551 | 76 | 9 | 1.7 | 3.5 | 0.00 | 0.00 | 0.00 | 45 | 1018.1 |
| 20260503183049 | 74 | 27 | 2.6 | 3.5 | 0.00 | 0.00 | 0.00 | 41 | 1017.9 |
| 20260503182547 | 74 | 277 | 0.0 | 2.6 | 0.00 | 0.00 | 0.00 | 46 | 1017.9 |
| 20260503182045 | 74 | 88 | 0.0 | 2.6 | 0.00 | 0.00 | 0.00 | 41 | 1017.9 |
| 20260503181541 | 74 | 250 | 3.5 | 4.3 | 0.00 | 0.00 | 0.00 | 41 | 1018.2 |
| 20260503181038 | 75 | 329 | 2.6 | 4.3 | 0.00 | 0.00 | 0.00 | 46 | 1018.2 |
| 20260503180535 | 75 | 14 | 5.2 | 5.2 | 0.00 | 0.00 | 0.00 | 43 | 1018.1 |
| 20260503180032 | 75 | 313 | 2.6 | 3.5 | 0.00 | 0.00 | 0.00 | 44 | 1018.4 |
| 20260503175530 | 74 | 4 | 2.6 | 5.2 | 0.00 | 0.00 | 0.00 | 43 | 1018.4 |
| 20260503175027 | 74 | 34 | 1.7 | 6.1 | 0.00 | 0.00 | 0.00 | 45 | 1018.4 |
| 20260503174524 | 75 | 193 | 0.9 | 2.6 | 0.00 | 0.00 | 0.00 | 45 | 1018.4 |
| 20260503174020 | 73 | 183 | 0.0 | 2.6 | 0.00 | 0.00 | 0.00 | 45 | 1018.4 |